Weather at Loxahatchee Airport

Public forecast

Using degrees Fahrenheit for public forecast. Weather courtesy of forecast.io.

Closest aviation weather report (METAR) to Loxahatchee Airport

Closest report is Palm Beach International Airport, 11.8 nm (21.9 km) ENE.

2023/01/26 22:53 (retrieved 15 minutes ago)

KPBI 262253Z 01007KT 10SM BKN080 BKN250 21/15 A3013 RMK AO2 SLP201 T02110150

Closest aviation forecast (TAF) to Loxahatchee Airport

Closest forecast is Palm Beach International Airport, 11.8 nm (21.9 km) ENE.

2023/01/26 21:08 Ammendment (retrieved 2 hours ago)

TAF AMD KPBI 262100Z 2621/2718 01008KT P6SM SCT025 BKN060 FM271400 01010KT P6SM SCT040 BKN050